createdAt,value
2022-12-08T00:02:53.003Z,21.27
2022-12-08T00:08:13.629Z,21.40
2022-12-08T00:13:15.498Z,22.77
2022-12-08T00:18:17.298Z,22.50
2022-12-08T00:23:19.092Z,20.50
2022-12-08T00:28:20.938Z,22.67
2022-12-08T00:33:22.801Z,19.47
2022-12-08T00:38:24.479Z,22.40
2022-12-08T00:43:26.869Z,18.87
2022-12-08T00:48:28.623Z,17.87
2022-12-08T00:53:31.823Z,22.20
2022-12-08T00:58:33.625Z,21.93
2022-12-08T01:03:35.462Z,18.63
2022-12-08T01:08:38.117Z,19.13
2022-12-08T01:13:40.088Z,20.67
2022-12-08T01:18:41.863Z,20.50
2022-12-08T01:23:44.028Z,17.63
2022-12-08T01:28:47.137Z,20.90
2022-12-08T01:33:48.994Z,20.43
2022-12-08T01:38:51.409Z,19.07
2022-12-08T01:44:04.390Z,19.03
2022-12-08T01:49:17.948Z,19.60
2022-12-08T01:54:23.523Z,16.73
2022-12-08T01:59:26.208Z,16.40
2022-12-08T02:04:27.920Z,19.77
2022-12-08T02:09:29.672Z,17.63
2022-12-08T02:14:32.348Z,8.40
2022-12-08T02:20:05.804Z,12.37
2022-12-08T02:25:19.742Z,13.23
2022-12-08T02:30:25.805Z,19.53
2022-12-08T02:35:36.503Z,16.93
2022-12-08T02:41:01.227Z,18.17
2022-12-08T02:46:07.586Z,18.67
2022-12-08T02:51:09.358Z,18.70
2022-12-08T02:56:41.647Z,19.23
2022-12-08T03:02:01.428Z,19.23
2022-12-08T03:07:33.835Z,18.00
2022-12-08T03:12:48.138Z,19.17
2022-12-08T03:17:56.566Z,18.97
2022-12-08T03:23:00.352Z,20.87
2022-12-08T03:28:02.288Z,21.43
2022-12-08T03:33:17.673Z,23.40
2022-12-08T03:38:19.832Z,19.90
2022-12-08T03:43:21.694Z,20.60
2022-12-08T03:48:23.430Z,18.83
2022-12-08T03:53:26.057Z,27.00
2022-12-08T03:58:30.770Z,22.13
2022-12-08T04:03:34.809Z,24.10
2022-12-08T04:08:36.545Z,22.07
2022-12-08T04:13:39.863Z,24.73
2022-12-08T04:18:41.575Z,18.57
2022-12-08T04:23:43.726Z,20.03
2022-12-08T04:28:45.566Z,22.63
2022-12-08T04:33:47.388Z,21.53
2022-12-08T04:38:49.101Z,20.07
2022-12-08T04:43:50.841Z,20.50
2022-12-08T04:48:52.585Z,22.00
2022-12-08T04:53:54.451Z,23.40
2022-12-08T04:58:56.113Z,28.13
2022-12-08T05:05:13.652Z,23.47
2022-12-08T05:10:15.350Z,28.27
2022-12-08T05:15:17.046Z,32.47
2022-12-08T05:20:18.700Z,32.00
2022-12-08T05:25:20.312Z,22.90
2022-12-08T05:30:21.906Z,23.43
2022-12-08T05:35:23.512Z,28.13
2022-12-08T05:40:25.102Z,24.13
2022-12-08T05:45:26.833Z,28.67
2022-12-08T05:50:28.619Z,24.83
2022-12-08T05:55:30.475Z,22.23
2022-12-08T06:00:34.836Z,22.50
2022-12-08T06:05:36.514Z,21.07
2022-12-08T06:10:39.694Z,20.57
2022-12-08T06:15:41.632Z,20.43
2022-12-08T06:20:43.289Z,22.40
2022-12-08T06:25:45.053Z,22.83
2022-12-08T06:30:46.824Z,24.10
2022-12-08T06:35:48.666Z,23.87
2022-12-08T06:40:54.838Z,24.30
2022-12-08T06:45:56.574Z,23.60
2022-12-08T06:50:58.292Z,24.83
2022-12-08T06:56:00.229Z,27.00
2022-12-08T07:01:06.885Z,22.77
2022-12-08T07:06:08.694Z,26.73
2022-12-08T07:11:14.218Z,32.50
2022-12-08T07:16:20.106Z,27.43
2022-12-08T07:21:21.874Z,21.77
2022-12-08T07:26:23.728Z,21.17
2022-12-08T07:31:26.490Z,21.87
2022-12-08T07:36:28.378Z,19.90
2022-12-08T07:41:30.134Z,24.20
2022-12-08T07:46:32.007Z,23.27
2022-12-08T07:51:33.767Z,23.47
2022-12-08T07:56:35.591Z,22.97
2022-12-08T08:01:37.490Z,25.13
2022-12-08T08:06:39.423Z,24.77
2022-12-08T08:11:41.228Z,23.43
2022-12-08T08:16:46.889Z,26.10
2022-12-08T08:21:48.734Z,29.33
2022-12-08T08:26:50.727Z,27.40
2022-12-08T08:31:52.496Z,29.60
2022-12-08T08:36:54.296Z,34.27
2022-12-08T08:41:55.983Z,37.27
2022-12-08T08:46:57.748Z,40.00
2022-12-08T08:51:59.539Z,43.63
2022-12-08T08:57:01.829Z,30.67
2022-12-08T09:02:03.706Z,31.40
2022-12-08T09:07:05.552Z,29.60
2022-12-08T09:12:07.642Z,30.97
2022-12-08T09:17:09.442Z,30.40
2022-12-08T09:22:11.103Z,32.23
2022-12-08T09:27:12.798Z,35.03
2022-12-08T09:32:14.524Z,27.23
2022-12-08T09:37:16.312Z,28.33
2022-12-08T09:42:30.983Z,24.17
2022-12-08T09:47:39.765Z,28.93
2022-12-08T09:52:47.117Z,27.90
2022-12-08T09:58:00.141Z,27.33
2022-12-08T10:03:02.030Z,27.73
2022-12-08T10:08:21.260Z,29.30
2022-12-08T10:13:45.071Z,28.27
2022-12-08T10:18:46.746Z,26.30
2022-12-08T10:23:53.558Z,30.37
2022-12-08T10:29:01.341Z,28.43
2022-12-08T10:34:16.410Z,28.73
2022-12-08T10:39:37.405Z,31.17
2022-12-08T10:44:53.432Z,28.07
2022-12-08T10:50:18.967Z,25.37
2022-12-08T10:55:21.750Z,24.53
2022-12-08T11:06:21.676Z,25.20
2022-12-08T11:11:47.286Z,23.03
2022-12-08T11:16:51.521Z,26.13
2022-12-08T11:21:53.443Z,23.70
2022-12-08T11:27:02.359Z,24.97
2022-12-08T11:32:12.874Z,22.10
2022-12-08T11:37:35.963Z,22.20
2022-12-08T11:42:54.997Z,24.50
2022-12-08T11:48:19.564Z,23.50
2022-12-08T11:53:30.023Z,21.37
2022-12-08T11:58:39.348Z,22.17
2022-12-08T12:03:47.367Z,22.23
2022-12-08T12:09:11.361Z,17.10
2022-12-08T12:14:34.875Z,20.07
2022-12-08T12:19:39.551Z,17.73
2022-12-08T12:24:44.324Z,16.77
2022-12-08T12:30:05.085Z,23.77
2022-12-08T12:35:17.956Z,22.33
2022-12-08T12:40:24.330Z,22.83
2022-12-08T12:45:26.033Z,24.87
2022-12-08T12:50:33.731Z,18.53
2022-12-08T12:55:56.652Z,20.77
2022-12-08T13:01:10.421Z,23.70
2022-12-08T13:06:15.084Z,16.47
2022-12-08T13:11:17.047Z,14.53
2022-12-08T13:16:24.164Z,15.53
2022-12-08T13:21:36.890Z,14.67
2022-12-08T13:27:03.343Z,14.80
2022-12-08T13:33:09.642Z,16.87
2022-12-08T13:38:06.975Z,13.40
2022-12-08T13:43:45.198Z,12.77
2022-12-08T13:51:23.859Z,9.60
2022-12-08T13:55:12.245Z,12.17
2022-12-08T13:59:48.496Z,9.33
2022-12-08T14:10:20.405Z,10.00
2022-12-08T14:15:23.222Z,10.87
2022-12-08T14:20:27.865Z,9.80
2022-12-08T14:25:30.169Z,8.67
2022-12-08T14:30:33.178Z,9.03
2022-12-08T14:35:37.095Z,10.87
2022-12-08T14:40:40.007Z,10.87
2022-12-08T14:45:41.633Z,11.13
2022-12-08T14:51:03.325Z,11.63
2022-12-08T14:56:26.793Z,9.47
2022-12-08T15:01:28.865Z,10.17
2022-12-08T15:06:30.658Z,11.87
2022-12-08T15:11:35.116Z,15.90
2022-12-08T15:16:36.724Z,12.57
2022-12-08T15:21:38.977Z,15.80
2022-12-08T15:26:49.079Z,14.67
2022-12-08T15:31:52.812Z,14.17
2022-12-08T15:36:55.079Z,14.03
2022-12-08T15:41:57.312Z,13.87
2022-12-08T15:47:00.035Z,13.67
2022-12-08T15:52:11.321Z,17.63
2022-12-08T15:57:59.092Z,22.67
2022-12-08T16:03:18.395Z,16.13
2022-12-08T16:08:38.297Z,15.60
2022-12-08T16:14:16.663Z,15.37
2022-12-08T16:19:17.106Z,19.73
2022-12-08T16:24:18.954Z,15.30
2022-12-08T16:29:22.612Z,20.47
2022-12-08T16:34:24.212Z,24.57
2022-12-08T16:39:26.085Z,32.73
2022-12-08T16:44:27.707Z,24.07
2022-12-08T16:49:29.363Z,31.13
2022-12-08T16:54:31.035Z,27.13
2022-12-08T16:59:32.657Z,19.83
2022-12-08T17:04:34.325Z,29.10
2022-12-08T17:09:36.030Z,26.37
2022-12-08T17:14:37.783Z,24.30
2022-12-08T17:19:39.537Z,23.47
2022-12-08T17:24:41.157Z,26.47
2022-12-08T17:29:42.720Z,25.30
2022-12-08T17:34:44.637Z,25.77
2022-12-08T17:39:46.395Z,23.00
2022-12-08T17:44:47.954Z,25.27
2022-12-08T17:49:49.647Z,31.23
2022-12-08T17:54:51.241Z,31.60
2022-12-08T17:59:52.927Z,28.00
2022-12-08T18:04:54.564Z,39.83
2022-12-08T18:09:56.560Z,55.17
2022-12-08T18:14:58.237Z,47.20
2022-12-08T18:19:59.844Z,32.67
2022-12-08T18:25:01.426Z,46.37
2022-12-08T18:30:04.675Z,34.43
2022-12-08T18:35:06.990Z,35.17
2022-12-08T18:40:09.643Z,44.47
2022-12-08T18:45:11.488Z,53.00
2022-12-08T18:50:13.259Z,43.93
2022-12-08T18:55:15.680Z,31.67
2022-12-08T19:00:19.386Z,31.43
2022-12-08T19:05:20.982Z,37.80
2022-12-08T19:10:22.582Z,63.40
2022-12-08T19:15:24.489Z,34.10
2022-12-08T19:20:27.426Z,23.07
2022-12-08T19:25:29.051Z,31.30
2022-12-08T19:30:33.415Z,33.87
2022-12-08T19:35:36.270Z,37.23
2022-12-08T19:40:58.956Z,48.73
2022-12-08T19:46:00.777Z,37.57
2022-12-08T19:51:02.525Z,28.27
2022-12-08T19:56:04.824Z,22.40
2022-12-08T20:01:06.615Z,23.67
2022-12-08T20:06:15.601Z,23.27
2022-12-08T20:11:17.319Z,25.73
2022-12-08T20:16:19.346Z,23.53
2022-12-08T20:21:22.091Z,23.37
2022-12-08T20:26:24.508Z,22.93
2022-12-08T20:31:29.616Z,21.23
2022-12-08T20:36:31.627Z,24.40
2022-12-08T20:41:38.791Z,22.83
2022-12-08T20:46:44.985Z,18.20
2022-12-08T20:51:49.927Z,20.80
2022-12-08T20:56:52.061Z,20.33
2022-12-08T21:01:54.149Z,22.77
2022-12-08T21:06:56.044Z,31.60
2022-12-08T21:11:57.831Z,29.87
2022-12-08T21:16:59.607Z,31.13
2022-12-08T21:22:01.528Z,30.10
2022-12-08T21:27:03.394Z,25.87
2022-12-08T21:32:05.596Z,30.50
2022-12-08T21:37:07.431Z,32.33
2022-12-08T21:42:33.887Z,33.17
2022-12-08T21:47:36.191Z,26.90
2022-12-08T21:52:39.820Z,26.90
2022-12-08T21:57:41.744Z,31.60
2022-12-08T22:02:43.795Z,29.30
2022-12-08T22:07:45.737Z,24.83
2022-12-08T22:12:47.620Z,26.10
2022-12-08T22:17:49.482Z,19.67
2022-12-08T22:22:51.165Z,19.93
2022-12-08T22:27:52.837Z,18.80
2022-12-08T22:32:54.778Z,20.23
2022-12-08T22:37:56.502Z,15.07
2022-12-08T22:42:58.306Z,16.50
2022-12-08T22:47:59.974Z,16.33
2022-12-08T22:53:02.037Z,17.37
2022-12-08T22:58:03.737Z,15.80
2022-12-08T23:03:06.371Z,13.37
2022-12-08T23:08:09.376Z,15.20
2022-12-08T23:13:12.434Z,21.00
2022-12-08T23:18:16.771Z,22.87
2022-12-08T23:23:18.382Z,17.47
2022-12-08T23:28:20.211Z,15.07
2022-12-08T23:33:22.002Z,15.87
2022-12-08T23:38:24.126Z,14.20
2022-12-08T23:43:25.782Z,13.73
2022-12-08T23:48:29.222Z,15.97
2022-12-08T23:53:32.431Z,13.07
2022-12-08T23:58:35.554Z,10.47
